Time;durP1;ratioP1;P1;durP2;ratioP2;P2;SDS_P1;SDS_P2;PMS_P1;PMS_P2;Temp;Humidity;BMP_temperature;BMP_pressure;BME280_temperature;BME280_humidity;BME280_pressure;Samples;Min_cycle;Max_cycle;Signal;HPM_P1;HPM_P2
2023/09/07 00:01:19;;;;;;;2.60;2.40;;;27.30;46.90;;;;;;5085642;27;46371;-69
2023/09/07 00:03:47;;;;;;;3.35;3.00;;;27.20;46.90;;;;;;5086482;27;45323;-68
2023/09/07 00:06:14;;;;;;;3.95;2.90;;;27.20;47.00;;;;;;5085976;27;45401;-68
2023/09/07 00:08:41;;;;;;;3.78;2.20;;;27.20;47.10;;;;;;5086206;27;45438;-68
2023/09/07 00:11:09;;;;;;;2.95;2.65;;;27.20;47.10;;;;;;5085694;27;46262;-68
2023/09/07 00:13:35;;;;;;;5.40;2.75;;;27.20;47.20;;;;;;5085738;27;45279;-68
2023/09/07 00:16:03;;;;;;;3.55;2.20;;;27.10;47.20;;;;;;5085986;27;45188;-68
2023/09/07 00:18:30;;;;;;;2.58;2.38;;;27.10;47.30;;;;;;5085942;27;45368;-68
2023/09/07 00:20:59;;;;;;;3.15;2.50;;;27.10;47.40;;;;;;5085585;27;45331;-69
2023/09/07 00:23:26;;;;;;;2.60;2.40;;;27.10;47.40;;;;;;5085611;27;45428;-68
2023/09/07 00:25:53;;;;;;;2.70;2.45;;;27.10;47.60;;;;;;5085652;27;45303;-68
2023/09/07 00:28:20;;;;;;;2.60;2.40;;;27.00;47.50;;;;;;5085923;27;45313;-68
2023/09/07 00:30:47;;;;;;;3.10;2.80;;;27.00;47.60;;;;;;5085382;27;46379;-68
2023/09/07 00:33:13;;;;;;;2.85;2.58;;;27.00;47.70;;;;;;5085388;27;45322;-68
2023/09/07 00:35:40;;;;;;;2.75;2.42;;;27.00;47.70;;;;;;5085695;27;45311;-68
2023/09/07 00:38:08;;;;;;;3.92;2.60;;;26.90;47.70;;;;;;5085575;27;45419;-68
2023/09/07 00:40:36;;;;;;;3.17;2.88;;;26.90;47.80;;;;;;5085302;27;46291;-68
2023/09/07 00:43:04;;;;;;;3.17;2.60;;;26.90;47.90;;;;;;5085069;27;45553;-68
2023/09/07 00:45:31;;;;;;;2.63;2.42;;;26.90;47.90;;;;;;5085462;27;45378;-68
2023/09/07 00:47:58;;;;;;;3.25;2.88;;;26.80;48.00;;;;;;5085527;27;45317;-68
2023/09/07 00:50:25;;;;;;;3.53;2.40;;;26.80;48.10;;;;;;5085050;27;46466;-68
2023/09/07 00:52:51;;;;;;;2.88;2.63;;;26.80;48.10;;;;;;5085828;27;45200;-68
2023/09/07 00:55:21;;;;;;;2.50;2.30;;;26.80;48.10;;;;;;5089071;27;45348;-68
2023/09/07 00:57:48;;;;;;;2.78;2.53;;;26.70;48.20;;;;;;5088786;27;45384;-68
2023/09/07 01:00:15;;;;;;;3.33;2.47;;;26.70;48.20;;;;;;5088407;27;46457;-68
2023/09/07 01:02:44;;;;;;;2.88;2.63;;;26.70;48.30;;;;;;5088662;27;45195;-68
2023/09/07 01:05:11;;;;;;;2.50;2.30;;;26.70;48.40;;;;;;5088741;27;45444;-68
2023/09/07 01:07:39;;;;;;;3.70;2.75;;;26.60;48.30;;;;;;5088738;27;45396;-68
2023/09/07 01:10:07;;;;;;;2.50;2.30;;;26.60;48.40;;;;;;5088414;27;46636;-68
2023/09/07 01:12:35;;;;;;;2.80;2.50;;;26.60;48.50;;;;;;5088516;27;45387;-68
2023/09/07 01:15:04;;;;;;;3.33;2.55;;;26.60;48.50;;;;;;5088575;27;45356;-68
2023/09/07 01:17:31;;;;;;;4.40;2.60;;;26.50;48.40;;;;;;5088524;27;45272;-68
2023/09/07 01:19:59;;;;;;;3.67;2.70;;;26.50;48.50;;;;;;5088262;27;46682;-68
2023/09/07 01:22:27;;;;;;;2.97;2.67;;;26.50;48.50;;;;;;5088188;27;45429;-68
2023/09/07 01:24:54;;;;;;;3.35;2.67;;;26.50;48.60;;;;;;5088390;27;45175;-68
2023/09/07 01:27:20;;;;;;;2.55;2.35;;;26.50;48.70;;;;;;5088363;27;45381;-68
2023/09/07 01:29:47;;;;;;;2.40;2.20;;;26.50;48.70;;;;;;5088062;27;45240;-68
2023/09/07 01:32:14;;;;;;;3.33;2.40;;;26.40;48.70;;;;;;5088211;27;45356;-68
2023/09/07 01:34:41;;;;;;;3.17;2.55;;;26.40;48.70;;;;;;5088284;27;45488;-68
2023/09/07 01:37:08;;;;;;;3.15;2.85;;;26.40;48.70;;;;;;5088201;27;45442;-68
2023/09/07 01:39:36;;;;;;;2.75;2.22;;;26.40;48.90;;;;;;5087984;27;46377;-68
2023/09/07 01:42:04;;;;;;;2.85;2.55;;;26.40;48.80;;;;;;5087848;27;45498;-68
2023/09/07 01:44:30;;;;;;;2.30;2.10;;;26.40;48.80;;;;;;5088119;27;45508;-68
2023/09/07 01:46:57;;;;;;;3.10;2.50;;;26.30;48.80;;;;;;5088041;27;45459;-68
2023/09/07 01:49:24;;;;;;;2.70;2.50;;;26.30;48.80;;;;;;5087801;27;45240;-68
2023/09/07 01:51:52;;;;;;;3.72;2.28;;;26.30;48.90;;;;;;5087846;27;45134;-68
2023/09/07 01:54:19;;;;;;;2.75;2.50;;;26.30;48.90;;;;;;5088053;27;45478;-68
2023/09/07 01:56:47;;;;;;;2.53;2.33;;;26.30;48.90;;;;;;5087933;27;45366;-68
2023/09/07 01:59:14;;;;;;;2.45;2.25;;;26.20;48.90;;;;;;5087708;27;46276;-68
2023/09/07 02:01:40;;;;;;;2.45;2.25;;;26.20;48.90;;;;;;5087706;27;45261;-68
2023/09/07 02:04:07;;;;;;;2.50;2.30;;;26.20;49.00;;;;;;5087294;27;45583;-68
2023/09/07 02:06:34;;;;;;;2.78;2.58;;;26.20;49.00;;;;;;5087655;27;45435;-68
2023/09/07 02:09:02;;;;;;;2.80;2.50;;;26.20;49.00;;;;;;5087620;27;45763;-68
2023/09/07 02:11:28;;;;;;;3.63;2.85;;;26.10;49.00;;;;;;5087687;27;45228;-68
2023/09/07 02:13:56;;;;;;;3.53;2.80;;;26.10;49.00;;;;;;5087685;27;45298;-68
2023/09/07 02:16:23;;;;;;;2.50;2.30;;;26.10;49.60;;;;;;5087562;27;45495;-68
2023/09/07 02:18:50;;;;;;;3.72;2.40;;;26.00;49.00;;;;;;5087281;27;46738;-68
2023/09/07 02:21:17;;;;;;;2.50;2.25;;;26.00;49.10;;;;;;5087289;27;45312;-68
2023/09/07 02:23:44;;;;;;;2.85;2.60;;;26.00;49.10;;;;;;5087463;27;45296;-68
2023/09/07 02:26:11;;;;;;;2.35;2.15;;;26.00;49.10;;;;;;5087549;27;45283;-68
2023/09/07 02:28:38;;;;;;;2.95;2.67;;;26.00;49.10;;;;;;5087118;27;45271;-68
2023/09/07 02:31:06;;;;;;;3.88;2.33;;;26.00;49.10;;;;;;5087308;27;45331;-68
2023/09/07 02:33:33;;;;;;;2.63;2.20;;;26.00;49.10;;;;;;5087556;27;45462;-68
2023/09/07 02:36:00;;;;;;;2.20;2.10;;;25.90;49.10;;;;;;5087553;27;45327;-68
2023/09/07 02:38:26;;;;;;;2.05;1.90;;;25.90;49.10;;;;;;5087093;27;45269;-69
2023/09/07 02:40:54;;;;;;;2.40;2.20;;;25.90;49.10;;;;;;5087129;27;45256;-69
2023/09/07 02:43:22;;;;;;;3.08;2.40;;;25.90;49.10;;;;;;5087421;27;45484;-69
2023/09/07 02:45:49;;;;;;;2.17;2.08;;;25.90;49.10;;;;;;5087101;27;45351;-69
2023/09/07 02:48:17;;;;;;;2.63;2.40;;;25.90;49.10;;;;;;5086796;27;47280;-69
2023/09/07 02:50:48;;;;;;;2.58;2.38;;;25.90;49.20;;;;;;5086851;27;45462;-69
2023/09/07 02:53:15;;;;;;;2.22;2.03;;;25.80;49.10;;;;;;5087105;27;45281;-69
2023/09/07 02:55:42;;;;;;;2.45;2.25;;;25.80;49.10;;;;;;5087234;27;45163;-69
2023/09/07 02:58:08;;;;;;;2.72;2.35;;;25.80;49.20;;;;;;5086759;27;45349;-69
2023/09/07 03:00:35;;;;;;;2.67;2.47;;;25.80;49.20;;;;;;5086635;27;45327;-69
2023/09/07 03:03:03;;;;;;;3.92;2.00;;;25.80;49.20;;;;;;5086949;27;45457;-69
2023/09/07 03:05:31;;;;;;;2.47;2.25;;;25.70;49.20;;;;;;5086932;27;45380;-69
2023/09/07 03:07:58;;;;;;;2.28;2.10;;;25.70;49.20;;;;;;5086642;27;45319;-69
2023/09/07 03:10:25;;;;;;;2.28;2.10;;;25.70;49.20;;;;;;5086853;27;45380;-69
2023/09/07 03:12:54;;;;;;;2.10;2.00;;;25.70;49.20;;;;;;5087173;27;45294;-69
2023/09/07 03:15:21;;;;;;;2.63;2.40;;;25.60;49.20;;;;;;5087076;27;45478;-69
2023/09/07 03:17:48;;;;;;;2.58;2.38;;;25.60;49.20;;;;;;5086744;27;45368;-69
2023/09/07 03:20:15;;;;;;;2.30;1.92;;;25.60;49.20;;;;;;5086620;27;45382;-69
2023/09/07 03:22:44;;;;;;;2.47;2.28;;;25.60;49.20;;;;;;5087048;27;45257;-69
2023/09/07 03:25:10;;;;;;;2.95;2.50;;;25.60;49.20;;;;;;5086859;27;45188;-69
2023/09/07 03:27:37;;;;;;;2.25;1.95;;;25.60;49.30;;;;;;5086386;27;45328;-69
2023/09/07 03:30:05;;;;;;;2.05;1.85;;;25.60;49.30;;;;;;5086645;27;45347;-69
2023/09/07 03:32:33;;;;;;;2.80;2.55;;;25.60;49.90;;;;;;5086876;27;45296;-69
2023/09/07 03:35:00;;;;;;;2.45;2.25;;;25.50;49.30;;;;;;5086898;27;45298;-69
2023/09/07 03:37:27;;;;;;;2.40;1.92;;;25.50;49.30;;;;;;5086458;28;46767;-69
2023/09/07 03:39:56;;;;;;;2.35;2.05;;;25.50;49.30;;;;;;5086445;27;45501;-69
2023/09/07 03:42:22;;;;;;;2.67;2.47;;;25.50;49.40;;;;;;5086420;27;45327;-69
2023/09/07 03:44:49;;;;;;;2.63;2.40;;;25.50;49.30;;;;;;5086643;27;45327;-69
2023/09/07 03:47:18;;;;;;;2.22;2.03;;;25.50;49.40;;;;;;5085829;27;45683;-69
2023/09/07 03:49:45;;;;;;;2.25;2.05;;;25.50;49.40;;;;;;5086266;27;45411;-69
2023/09/07 03:52:12;;;;;;;3.42;2.45;;;25.40;49.30;;;;;;5086514;27;45360;-69
2023/09/07 03:54:39;;;;;;;2.13;1.92;;;25.50;49.40;;;;;;5086408;27;45359;-69
2023/09/07 03:57:07;;;;;;;2.45;2.25;;;25.40;49.40;;;;;;5086122;27;46307;-69
2023/09/07 03:59:34;;;;;;;2.28;2.08;;;25.40;49.40;;;;;;5086342;27;45303;-69
2023/09/07 04:02:01;;;;;;;2.33;2.13;;;25.40;49.40;;;;;;5086215;27;45405;-68
2023/09/07 04:04:27;;;;;;;2.13;1.98;;;25.40;49.50;;;;;;5086315;27;45423;-69
2023/09/07 04:06:54;;;;;;;2.80;2.38;;;25.30;49.40;;;;;;5086108;27;45332;-69
2023/09/07 04:09:21;;;;;;;3.22;2.30;;;25.30;49.40;;;;;;5086083;27;45272;-69
2023/09/07 04:11:48;;;;;;;2.47;2.28;;;25.30;49.50;;;;;;5086187;27;45281;-69
2023/09/07 04:14:16;;;;;;;2.42;2.20;;;25.30;49.50;;;;;;5086384;27;45398;-69
2023/09/07 04:16:43;;;;;;;2.70;2.03;;;25.30;49.60;;;;;;5085766;27;46824;-69
2023/09/07 04:19:10;;;;;;;2.40;2.20;;;25.30;49.50;;;;;;5085984;27;45310;-69
2023/09/07 04:21:38;;;;;;;3.13;2.55;;;25.30;49.60;;;;;;5086355;27;45349;-69
2023/09/07 04:24:05;;;;;;;2.08;1.98;;;25.30;49.60;;;;;;5086225;27;45370;-69
2023/09/07 04:26:33;;;;;;;2.28;2.08;;;25.30;49.60;;;;;;5085578;27;47321;-69
2023/09/07 04:29:00;;;;;;;5.90;2.00;;;25.20;49.60;;;;;;5088165;27;45334;-69
2023/09/07 04:31:28;;;;;;;3.22;2.30;;;25.20;49.60;;;;;;5089122;27;45269;-69
2023/09/07 04:33:55;;;;;;;2.25;2.05;;;25.20;49.60;;;;;;5089520;27;45328;-69
2023/09/07 04:36:22;;;;;;;2.85;2.53;;;25.20;49.60;;;;;;5089508;27;46332;-69
2023/09/07 04:38:49;;;;;;;2.30;2.10;;;25.20;49.70;;;;;;5089280;27;45417;-69
2023/09/07 04:41:16;;;;;;;2.50;2.30;;;25.20;49.60;;;;;;5089187;27;45256;-68
2023/09/07 04:43:43;;;;;;;3.25;2.13;;;25.10;50.10;;;;;;5089612;27;45412;-69
2023/09/07 04:46:10;;;;;;;2.45;2.25;;;25.10;49.60;;;;;;5089064;27;46370;-69
2023/09/07 04:48:40;;;;;;;2.22;2.00;;;25.10;49.60;;;;;;5089264;27;45430;-69
2023/09/07 04:51:07;;;;;;;2.53;2.30;;;25.10;49.60;;;;;;5089311;27;45334;-69
2023/09/07 04:53:34;;;;;;;1.90;1.73;;;25.00;49.60;;;;;;5089499;27;45244;-68
2023/09/07 04:56:01;;;;;;;2.65;2.15;;;25.10;49.70;;;;;;5088896;27;46633;-69
2023/09/07 04:58:28;;;;;;;1.98;1.77;;;25.00;49.60;;;;;;5088979;27;45316;-69
2023/09/07 05:00:55;;;;;;;2.28;2.08;;;25.00;49.70;;;;;;5089427;27;45311;-69
2023/09/07 05:03:22;;;;;;;2.30;2.10;;;25.00;49.70;;;;;;5089316;27;45122;-69
2023/09/07 05:05:54;;;;;;;2.17;1.98;;;25.00;49.60;;;;;;5086063;27;46165;-69
2023/09/07 05:08:22;;;;;;;2.28;2.08;;;25.00;49.70;;;;;;5088661;27;45271;-69
2023/09/07 05:10:49;;;;;;;2.55;2.35;;;25.00;49.70;;;;;;5088859;27;45195;-69
2023/09/07 05:13:16;;;;;;;2.30;1.90;;;24.90;49.80;;;;;;5089211;27;45453;-69
2023/09/07 05:15:49;;;;;;;2.15;1.92;;;25.00;49.80;;;;;;5088364;27;46447;-69
2023/09/07 05:18:15;;;;;;;2.95;2.00;;;24.90;49.70;;;;;;5088383;27;45264;-69
2023/09/07 05:20:44;;;;;;;2.35;2.15;;;24.90;49.70;;;;;;5088837;27;45398;-69
2023/09/07 05:23:12;;;;;;;2.35;2.15;;;24.90;49.70;;;;;;5089126;27;45300;-69
2023/09/07 05:25:45;;;;;;;2.47;1.88;;;24.90;49.70;;;;;;5088418;27;46481;-69
2023/09/07 05:28:12;;;;;;;2.15;1.95;;;24.90;49.80;;;;;;5088550;27;45334;-69
2023/09/07 05:30:39;;;;;;;2.90;2.25;;;24.80;49.70;;;;;;5088797;27;45383;-69
2023/09/07 05:33:05;;;;;;;2.35;2.15;;;24.90;49.80;;;;;;5088684;27;45428;-69
2023/09/07 05:35:33;;;;;;;2.25;2.05;;;24.90;49.80;;;;;;5088350;27;45484;-69
2023/09/07 05:38:00;;;;;;;2.40;1.90;;;24.80;49.80;;;;;;5088347;27;45348;-69
2023/09/07 05:40:28;;;;;;;3.03;2.55;;;24.80;49.80;;;;;;5087323;27;45266;-69
2023/09/07 05:42:55;;;;;;;2.40;2.15;;;24.80;49.70;;;;;;5088332;27;45392;-69
2023/09/07 05:45:21;;;;;;;2.20;2.10;;;24.80;49.80;;;;;;5088154;27;46394;-69
2023/09/07 05:47:48;;;;;;;3.10;2.17;;;24.80;49.80;;;;;;5088142;27;45403;-69
2023/09/07 05:50:15;;;;;;;2.75;2.10;;;24.80;49.80;;;;;;5088183;27;45264;-69
2023/09/07 05:52:42;;;;;;;2.45;2.25;;;24.80;49.70;;;;;;5088408;27;45316;-69
2023/09/07 05:55:10;;;;;;;2.15;1.95;;;24.80;49.70;;;;;;5088051;27;45314;-69
2023/09/07 05:57:38;;;;;;;2.30;2.08;;;24.80;49.70;;;;;;5088209;27;45330;-69
2023/09/07 06:00:06;;;;;;;2.53;2.03;;;24.80;50.30;;;;;;5088225;27;45310;-69
2023/09/07 06:02:33;;;;;;;2.67;2.47;;;24.80;49.80;;;;;;5088415;27;45248;-69
2023/09/07 06:05:00;;;;;;;2.50;2.25;;;24.80;49.70;;;;;;5087992;27;46296;-69
2023/09/07 06:07:27;;;;;;;2.33;2.13;;;24.80;49.70;;;;;;5087487;27;45513;-69
2023/09/07 06:09:53;;;;;;;2.20;2.10;;;24.70;49.70;;;;;;5088133;27;45385;-69
2023/09/07 06:12:20;;;;;;;2.55;2.00;;;24.70;49.70;;;;;;5088185;27;45486;-69
2023/09/07 06:14:48;;;;;;;2.50;2.30;;;24.80;49.80;;;;;;5087761;27;45723;-69
2023/09/07 06:17:15;;;;;;;2.50;1.95;;;24.80;49.80;;;;;;5087774;27;45385;-69
2023/09/07 06:19:42;;;;;;;2.58;2.38;;;24.70;49.70;;;;;;5087940;27;45348;-68
2023/09/07 06:22:09;;;;;;;2.33;2.03;;;24.70;49.70;;;;;;5087935;27;45412;-69
2023/09/07 06:24:36;;;;;;;3.60;2.38;;;24.80;49.70;;;;;;5087929;27;45325;-68
2023/09/07 06:27:03;;;;;;;2.22;2.00;;;24.70;49.60;;;;;;5087884;27;45314;-68
2023/09/07 06:29:30;;;;;;;2.22;1.90;;;24.70;49.60;;;;;;5087764;27;45192;-68
2023/09/07 06:32:01;;;;;;;2.15;1.90;;;24.70;49.60;;;;;;5087689;27;45380;-68
2023/09/07 06:34:28;;;;;;;2.25;2.05;;;24.70;49.60;;;;;;5087468;27;46270;-68
2023/09/07 06:36:55;;;;;;;2.60;2.20;;;24.70;49.60;;;;;;5087426;27;45272;-69
2023/09/07 06:39:21;;;;;;;2.53;1.92;;;24.70;49.70;;;;;;5087571;27;45307;-68
2023/09/07 06:41:48;;;;;;;2.10;1.80;;;24.70;50.20;;;;;;5087502;27;45300;-68
2023/09/07 06:44:15;;;;;;;2.25;2.05;;;24.70;49.60;;;;;;5087309;27;46553;-68
2023/09/07 06:46:42;;;;;;;4.57;2.03;;;24.80;49.70;;;;;;5087336;27;45252;-68
2023/09/07 06:49:10;;;;;;;3.80;2.35;;;24.80;49.60;;;;;;5087573;27;45233;-68
2023/09/07 06:51:37;;;;;;;2.45;2.25;;;24.70;49.60;;;;;;5086974;27;45431;-68
2023/09/07 06:54:04;;;;;;;2.35;1.98;;;24.70;49.60;;;;;;5086870;27;45439;-68
2023/09/07 06:56:33;;;;;;;2.33;1.98;;;24.70;49.60;;;;;;5087227;27;45317;-68
2023/09/07 06:59:00;;;;;;;2.13;1.80;;;24.80;49.60;;;;;;5087450;27;45142;-69
2023/09/07 07:01:26;;;;;;;2.20;2.00;;;24.80;49.60;;;;;;5087120;27;45387;-68
2023/09/07 07:03:54;;;;;;;2.22;2.03;;;24.80;49.60;;;;;;5086947;27;46877;-69
2023/09/07 07:06:22;;;;;;;2.25;2.03;;;24.80;49.60;;;;;;5086862;27;45323;-68
2023/09/07 07:08:49;;;;;;;3.78;2.15;;;24.80;49.50;;;;;;5087309;27;45277;-68
2023/09/07 07:11:15;;;;;;;2.58;2.38;;;24.80;49.50;;;;;;5087176;27;45319;-68
2023/09/07 07:13:42;;;;;;;2.28;2.08;;;24.80;49.50;;;;;;5086919;27;45425;-69
2023/09/07 07:16:09;;;;;;;2.20;2.00;;;24.90;49.50;;;;;;5086891;27;45355;-69
2023/09/07 07:18:36;;;;;;;2.20;2.00;;;24.80;49.50;;;;;;5087044;27;45312;-69
2023/09/07 07:21:03;;;;;;;2.10;1.88;;;24.90;49.50;;;;;;5087174;27;45237;-68
2023/09/07 07:23:31;;;;;;;1.95;1.85;;;24.90;49.50;;;;;;5086914;27;45474;-68
2023/09/07 07:25:58;;;;;;;2.47;2.00;;;24.90;49.50;;;;;;5087441;27;45357;-68
2023/09/07 07:28:25;;;;;;;2.25;1.90;;;24.90;49.50;;;;;;5087121;27;45320;-68
2023/09/07 07:30:53;;;;;;;2.42;2.10;;;24.90;49.50;;;;;;5087213;27;45408;-68
2023/09/07 07:33:20;;;;;;;2.30;2.08;;;24.90;49.50;;;;;;5086734;27;45264;-68
2023/09/07 07:35:46;;;;;;;1.90;1.80;;;24.90;50.10;;;;;;5087308;27;45315;-69
2023/09/07 07:38:14;;;;;;;2.20;2.00;;;24.90;49.50;;;;;;5086458;27;45339;-69
2023/09/07 07:40:42;;;;;;;3.55;2.17;;;24.90;49.40;;;;;;5087176;27;45324;-69
2023/09/07 07:43:10;;;;;;;2.10;1.90;;;25.00;49.50;;;;;;5087103;27;45455;-69
2023/09/07 07:45:38;;;;;;;2.20;2.00;;;25.00;49.50;;;;;;5086475;27;45298;-69
2023/09/07 07:48:07;;;;;;;2.60;2.15;;;25.00;49.40;;;;;;5086826;27;45345;-69
2023/09/07 07:50:38;;;;;;;2.22;2.03;;;25.00;49.40;;;;;;5087137;27;45184;-69
2023/09/07 07:53:06;;;;;;;2.10;1.90;;;25.00;49.40;;;;;;5086789;27;46751;-69
2023/09/07 07:55:38;;;;;;;2.22;2.03;;;25.00;49.50;;;;;;5086723;27;45310;-69
2023/09/07 07:58:07;;;;;;;2.08;1.92;;;25.00;49.40;;;;;;5087148;27;45388;-69
2023/09/07 08:00:35;;;;;;;2.33;2.00;;;25.00;49.40;;;;;;5087751;27;45405;-68
2023/09/07 08:03:02;;;;;;;2.00;1.80;;;25.00;49.40;;;;;;5086056;27;45271;-68
2023/09/07 08:05:29;;;;;;;2.33;1.98;;;25.10;49.50;;;;;;5086187;27;45392;-68
2023/09/07 08:07:57;;;;;;;2.20;2.00;;;25.10;49.50;;;;;;5086295;27;45295;-68
2023/09/07 08:10:24;;;;;;;2.15;1.95;;;25.10;49.40;;;;;;5086383;27;45274;-68
2023/09/07 08:12:54;;;;;;;2.47;2.28;;;25.10;49.40;;;;;;5086013;27;47498;-69
2023/09/07 08:15:24;;;;;;;2.47;2.28;;;25.20;49.40;;;;;;5086132;27;45302;-69
2023/09/07 08:17:51;;;;;;;2.13;1.88;;;25.20;49.40;;;;;;5086084;27;45303;-69
2023/09/07 08:20:18;;;;;;;2.35;2.15;;;25.30;49.40;;;;;;5085993;27;45454;-69
2023/09/07 08:22:45;;;;;;;2.35;2.00;;;25.20;49.30;;;;;;5085727;27;45387;-69
2023/09/07 08:25:12;;;;;;;2.13;1.88;;;25.30;49.30;;;;;;5085891;27;45307;-69
2023/09/07 08:27:43;;;;;;;1.77;1.67;;;25.30;49.20;;;;;;5085725;28;45298;-68
2023/09/07 08:30:11;;;;;;;2.50;2.00;;;25.30;49.80;;;;;;5085400;27;45430;-69
2023/09/07 08:32:39;;;;;;;4.88;2.92;;;25.40;49.30;;;;;;5085622;27;45378;-69
2023/09/07 08:35:09;;;;;;;6.00;3.17;;;25.40;50.50;;;;;;5084767;27;45429;-69
2023/09/07 08:37:35;;;;;;;5.05;2.42;;;25.40;50.80;;;;;;5086149;27;45405;-71
2023/09/07 08:40:04;;;;;;;4.03;2.90;;;25.40;51.20;;;;;;5086873;27;45391;-73
2023/09/07 08:42:31;;;;;;;11.25;3.80;;;25.40;51.80;;;;;;5085726;27;47401;-70
2023/09/07 08:44:59;;;;;;;15.27;2.97;;;25.50;52.60;;;;;;5085673;27;45456;-66
2023/09/07 08:47:27;;;;;;;5.90;2.65;;;25.50;53.20;;;;;;5082779;27;45969;-74
2023/09/07 08:49:56;;;;;;;4.93;3.10;;;25.50;52.90;;;;;;5086857;27;45400;-72
2023/09/07 08:52:22;;;;;;;6.93;2.65;;;25.60;54.20;;;;;;5085625;27;46409;-71
2023/09/07 08:54:49;;;;;;;3.78;3.20;;;25.70;53.80;;;;;;5086225;27;45697;-71
2023/09/07 08:57:16;;;;;;;3.88;3.40;;;25.80;53.70;;;;;;5085555;27;45299;-73
2023/09/07 08:59:43;;;;;;;6.30;3.28;;;25.90;53.10;;;;;;5085301;27;45346;-71
2023/09/07 09:02:10;;;;;;;6.93;3.80;;;26.00;52.40;;;;;;5085281;27;45372;-70
2023/09/07 09:04:38;;;;;;;6.53;3.42;;;26.00;52.50;;;;;;5085289;27;45392;-69
2023/09/07 09:07:06;;;;;;;6.32;3.15;;;26.10;52.00;;;;;;5086785;27;45478;-69
2023/09/07 09:09:33;;;;;;;3.75;2.97;;;26.10;52.30;;;;;;5087432;27;45317;-69
2023/09/07 09:12:10;;;;;;;4.40;2.63;;;26.20;52.60;;;;;;5082582;27;45488;-68
2023/09/07 09:14:36;;;;;;;4.07;3.20;;;26.20;52.00;;;;;;5082323;27;45314;-69
2023/09/07 09:17:04;;;;;;;5.93;2.90;;;26.20;51.50;;;;;;5088542;27;45280;-69
2023/09/07 09:19:33;;;;;;;5.03;3.28;;;26.30;51.20;;;;;;5087266;27;45419;-69
2023/09/07 09:22:00;;;;;;;4.40;3.20;;;26.30;51.40;;;;;;5090562;27;45329;-69
2023/09/07 09:24:28;;;;;;;3.60;3.17;;;26.30;51.50;;;;;;5087912;27;45384;-68
2023/09/07 09:26:56;;;;;;;3.40;3.10;;;26.30;51.80;;;;;;5087879;27;45350;-68
2023/09/07 09:29:23;;;;;;;4.07;3.20;;;26.30;51.80;;;;;;5088323;27;45578;-67
2023/09/07 09:31:56;;;;;;;3.92;3.05;;;26.30;52.00;;;;;;5087833;27;45334;-69
2023/09/07 09:34:23;;;;;;;4.25;3.22;;;26.40;51.70;;;;;;5087990;27;45378;-69
2023/09/07 09:36:50;;;;;;;4.15;3.42;;;26.40;51.40;;;;;;5088064;27;45248;-69
2023/09/07 09:39:24;;;;;;;4.68;3.20;;;26.40;51.00;;;;;;5089212;27;45384;-68
2023/09/07 09:41:53;;;;;;;4.05;3.40;;;26.40;51.30;;;;;;5086986;27;46402;-69
2023/09/07 09:44:20;;;;;;;8.23;3.13;;;26.40;51.60;;;;;;5086814;27;45421;-69
2023/09/07 09:46:47;;;;;;;7.88;3.42;;;26.50;51.60;;;;;;5088437;27;45498;-69
2023/09/07 09:49:13;;;;;;;8.45;3.50;;;26.50;51.50;;;;;;5088147;27;45340;-69
2023/09/07 09:51:41;;;;;;;7.45;3.22;;;26.50;51.50;;;;;;5087740;27;45536;-69
2023/09/07 09:54:07;;;;;;;4.72;3.17;;;26.60;50.90;;;;;;5087817;27;45447;-69
2023/09/07 09:56:34;;;;;;;6.15;3.50;;;26.60;51.00;;;;;;5087123;27;45311;-69
2023/09/07 09:59:03;;;;;;;3.67;3.17;;;26.60;51.50;;;;;;5087849;27;45472;-69
2023/09/07 10:01:41;;;;;;;4.25;3.28;;;26.70;51.80;;;;;;5087650;27;46673;-69
2023/09/07 10:04:08;;;;;;;5.93;3.25;;;26.70;51.80;;;;;;5101622;27;45320;-69
2023/09/07 10:06:35;;;;;;;3.42;2.97;;;26.80;51.70;;;;;;5088211;27;45505;-69
2023/09/07 10:09:06;;;;;;;2.97;2.78;;;26.80;51.30;;;;;;5087667;27;45512;-69
2023/09/07 10:11:33;;;;;;;3.08;2.88;;;26.90;51.60;;;;;;5085760;27;45310;-69
2023/09/07 10:14:03;;;;;;;4.00;3.50;;;26.90;51.50;;;;;;5081778;27;45331;-69
2023/09/07 10:16:29;;;;;;;3.30;3.03;;;26.90;51.50;;;;;;5073307;27;45511;-69
2023/09/07 10:18:56;;;;;;;4.00;2.92;;;27.00;51.40;;;;;;5090482;27;45493;-69
2023/09/07 10:21:26;;;;;;;4.05;3.65;;;27.00;51.40;;;;;;5084290;27;45462;-69
2023/09/07 10:23:53;;;;;;;3.22;2.92;;;27.10;51.40;;;;;;5089926;27;45312;-69
2023/09/07 10:26:21;;;;;;;8.18;3.70;;;27.10;51.30;;;;;;5086529;27;45375;-70
2023/09/07 10:28:49;;;;;;;3.40;3.10;;;27.10;51.30;;;;;;5096744;27;45209;-68
2023/09/07 10:31:18;;;;;;;4.03;3.13;;;27.20;51.40;;;;;;5087127;27;46247;-68
2023/09/07 10:33:45;;;;;;;4.85;2.90;;;27.30;51.30;;;;;;5087223;27;45445;-68
2023/09/07 10:36:21;;;;;;;4.03;3.55;;;27.30;51.20;;;;;;5082055;27;45754;-69
2023/09/07 10:38:48;;;;;;;3.45;3.05;;;27.40;51.20;;;;;;5086956;27;45336;-69
2023/09/07 10:41:15;;;;;;;5.72;3.03;;;27.40;51.10;;;;;;5093150;27;45520;-68
2023/09/07 10:43:48;;;;;;;4.28;3.30;;;27.50;51.00;;;;;;5087985;27;45408;-69
2023/09/07 10:46:15;;;;;;;4.63;3.03;;;27.50;51.00;;;;;;5085345;28;45524;-68
2023/09/07 10:48:43;;;;;;;5.35;3.05;;;27.50;50.80;;;;;;5087031;27;45361;-68
2023/09/07 10:51:10;;;;;;;4.10;2.97;;;27.60;50.80;;;;;;5087802;27;45353;-69
2023/09/07 10:53:36;;;;;;;6.70;3.50;;;27.70;51.00;;;;;;5086260;27;45502;-69
2023/09/07 10:56:04;;;;;;;6.00;3.28;;;27.80;51.00;;;;;;5086698;27;45449;-69
2023/09/07 10:58:32;;;;;;;6.43;3.20;;;27.80;50.90;;;;;;5086887;27;45538;-69
2023/09/07 11:00:58;;;;;;;5.88;3.78;;;27.90;51.10;;;;;;5086491;27;46653;-69
2023/09/07 11:03:26;;;;;;;8.00;3.33;;;28.00;51.10;;;;;;5088005;27;45269;-69
2023/09/07 11:05:55;;;;;;;7.35;3.58;;;28.00;51.00;;;;;;5086681;27;45337;-70
2023/09/07 11:08:22;;;;;;;6.00;3.78;;;28.10;51.00;;;;;;5086714;27;45317;-68
2023/09/07 11:10:50;;;;;;;3.85;3.22;;;28.20;51.00;;;;;;5086329;27;45329;-68
2023/09/07 11:13:17;;;;;;;7.35;3.28;;;28.20;50.90;;;;;;5086747;27;45257;-68
2023/09/07 11:15:44;;;;;;;6.43;3.83;;;28.30;50.90;;;;;;5086084;27;45336;-69
2023/09/07 11:18:11;;;;;;;6.35;3.30;;;28.40;50.90;;;;;;5085313;27;45520;-69
2023/09/07 11:20:39;;;;;;;4.88;3.47;;;28.40;50.70;;;;;;5086664;27;45442;-69
2023/09/07 11:23:07;;;;;;;3.95;3.20;;;28.50;50.60;;;;;;5086487;27;45379;-68
2023/09/07 11:25:37;;;;;;;4.15;3.20;;;28.60;50.60;;;;;;5086330;27;45282;-69
2023/09/07 11:28:08;;;;;;;6.00;3.35;;;28.70;50.50;;;;;;5084008;27;45510;-69
2023/09/07 11:30:35;;;;;;;5.30;3.47;;;28.80;50.40;;;;;;5087249;27;47091;-69
2023/09/07 11:33:03;;;;;;;5.75;3.28;;;28.80;50.20;;;;;;5090577;27;45508;-68
2023/09/07 11:35:29;;;;;;;7.47;3.85;;;28.90;50.00;;;;;;5087034;27;45378;-68
2023/09/07 11:37:56;;;;;;;4.35;3.13;;;28.90;50.00;;;;;;5088770;27;45473;-68
2023/09/07 11:40:24;;;;;;;3.60;3.20;;;29.00;49.90;;;;;;5095519;27;46401;-68
2023/09/07 11:42:51;;;;;;;6.75;3.15;;;29.00;49.70;;;;;;5086993;27;45295;-68
2023/09/07 11:45:19;;;;;;;3.63;2.92;;;29.10;49.70;;;;;;5086411;27;45407;-68
2023/09/07 11:47:46;;;;;;;5.68;3.42;;;29.20;49.70;;;;;;5086619;27;45430;-68
2023/09/07 11:50:13;;;;;;;4.95;3.17;;;29.30;49.50;;;;;;5090478;27;46294;-68
2023/09/07 11:52:39;;;;;;;4.20;3.20;;;29.30;49.40;;;;;;5084584;27;45465;-69
2023/09/07 11:55:07;;;;;;;4.00;3.40;;;29.40;49.20;;;;;;5089788;27;45517;-68
2023/09/07 11:57:35;;;;;;;6.47;3.28;;;29.40;49.70;;;;;;5085876;27;45664;-68
2023/09/07 12:00:04;;;;;;;4.43;3.65;;;29.50;49.50;;;;;;5082925;27;45501;-68
2023/09/07 12:02:31;;;;;;;4.32;3.10;;;29.50;49.60;;;;;;5071115;27;45443;-69
2023/09/07 12:05:00;;;;;;;3.35;3.05;;;29.60;49.60;;;;;;5073707;27;45722;-68
2023/09/07 12:07:26;;;;;;;4.93;2.95;;;29.70;49.60;;;;;;5081553;27;45593;-68
2023/09/07 12:09:56;;;;;;;3.97;3.10;;;29.70;49.50;;;;;;5080356;27;46344;-69
2023/09/07 12:12:22;;;;;;;4.90;3.10;;;29.80;49.40;;;;;;5081082;27;45417;-68
2023/09/07 12:14:51;;;;;;;11.25;3.40;;;29.80;49.20;;;;;;5077748;27;45784;-69
2023/09/07 12:17:18;;;;;;;3.83;3.22;;;29.90;49.30;;;;;;5076642;27;45411;-68
2023/09/07 12:19:46;;;;;;;4.30;3.15;;;29.90;49.10;;;;;;5077809;27;45496;-69
2023/09/07 12:22:12;;;;;;;7.80;3.05;;;30.00;49.10;;;;;;5085436;27;45539;-68
2023/09/07 12:24:39;;;;;;;6.63;2.85;;;30.10;49.00;;;;;;5083230;27;45542;-67
2023/09/07 12:27:06;;;;;;;5.25;3.45;;;30.10;49.00;;;;;;5081306;27;45344;-66
2023/09/07 12:29:33;;;;;;;4.88;2.85;;;30.20;48.90;;;;;;5082375;27;45551;-67
2023/09/07 12:32:01;;;;;;;4.90;3.50;;;30.30;49.50;;;;;;5082593;27;45395;-67
2023/09/07 12:34:28;;;;;;;5.72;2.90;;;30.40;48.90;;;;;;5084071;27;45578;-69
2023/09/07 12:36:55;;;;;;;3.85;2.80;;;30.40;48.70;;;;;;5085997;27;45300;-69
2023/09/07 12:39:21;;;;;;;4.57;2.95;;;30.50;48.80;;;;;;5078240;27;46297;-69
2023/09/07 12:41:48;;;;;;;8.05;3.03;;;30.50;48.70;;;;;;5080504;28;45518;-69
2023/09/07 12:44:20;;;;;;;5.07;2.90;;;30.50;48.70;;;;;;5080174;27;45486;-71
2023/09/07 12:46:47;;;;;;;10.02;3.33;;;30.60;48.40;;;;;;5076703;27;45510;-70